createdAt,value
2018-11-03T00:00:55.723Z,5.03
2018-11-03T00:03:25.332Z,2.70
2018-11-03T00:05:54.626Z,4.47
2018-11-03T00:08:23.566Z,3.40
2018-11-03T00:10:53.003Z,3.30
2018-11-03T00:13:22.157Z,4.07
2018-11-03T00:15:51.263Z,5.90
2018-11-03T00:18:20.597Z,2.90
2018-11-03T00:20:49.795Z,4.57
2018-11-03T00:23:21.158Z,3.00
2018-11-03T00:25:50.442Z,4.53
2018-11-03T00:28:19.754Z,2.60
2018-11-03T00:30:51.017Z,2.50
2018-11-03T00:33:20.340Z,3.40
2018-11-03T00:35:49.636Z,4.43
2018-11-03T00:38:18.959Z,4.27
2018-11-03T00:40:48.187Z,3.13
2018-11-03T00:43:17.163Z,4.57
2018-11-03T00:45:46.162Z,4.50
2018-11-03T00:48:15.330Z,3.70
2018-11-03T00:50:44.575Z,3.93
2018-11-03T00:53:13.406Z,3.67
2018-11-03T00:55:42.781Z,6.23
2018-11-03T00:58:11.960Z,3.27
2018-11-03T01:00:41.304Z,4.77
2018-11-03T01:03:10.904Z,3.53
2018-11-03T01:05:42.059Z,3.83
2018-11-03T01:08:11.308Z,3.63
2018-11-03T01:10:40.440Z,8.23
2018-11-03T01:13:09.655Z,3.30
2018-11-03T01:15:38.788Z,3.93
2018-11-03T01:18:07.973Z,2.77
2018-11-03T01:20:37.243Z,3.77
2018-11-03T01:23:06.470Z,3.67
2018-11-03T01:25:35.785Z,4.13
2018-11-03T01:28:05.218Z,3.87
2018-11-03T01:30:34.410Z,3.87
2018-11-03T01:33:03.313Z,4.93
2018-11-03T01:35:32.463Z,3.67
2018-11-03T01:38:01.740Z,5.37
2018-11-03T01:40:31.025Z,3.43
2018-11-03T01:43:00.404Z,3.37
2018-11-03T01:45:29.433Z,4.50
2018-11-03T01:47:58.265Z,3.73
2018-11-03T01:50:27.553Z,7.63
2018-11-03T01:52:56.434Z,4.40
2018-11-03T01:55:25.231Z,5.40
2018-11-03T01:57:54.224Z,6.03
2018-11-03T02:00:23.117Z,4.10
2018-11-03T02:02:51.866Z,4.27
2018-11-03T02:05:20.815Z,6.27
2018-11-03T02:07:49.974Z,4.13
2018-11-03T02:10:19.194Z,7.00
2018-11-03T02:12:48.397Z,3.90
2018-11-03T02:15:17.630Z,4.17
2018-11-03T02:17:46.852Z,4.10
2018-11-03T02:20:18.142Z,4.30
2018-11-03T02:22:47.346Z,5.30
2018-11-03T02:25:16.209Z,5.10
2018-11-03T02:27:45.112Z,3.97
2018-11-03T02:30:13.918Z,4.10
2018-11-03T02:32:43.948Z,5.20
2018-11-03T02:35:13.074Z,4.70
2018-11-03T02:37:42.497Z,4.33
2018-11-03T02:40:12.934Z,5.70
2018-11-03T02:42:43.036Z,4.60
2018-11-03T02:45:12.519Z,4.93
2018-11-03T02:47:42.002Z,4.00
2018-11-03T02:50:13.140Z,5.27
2018-11-03T02:52:42.787Z,5.13
2018-11-03T02:55:12.041Z,4.40
2018-11-03T02:57:41.235Z,4.70
2018-11-03T03:00:11.469Z,4.40
2018-11-03T03:02:40.761Z,5.30
2018-11-03T03:05:10.977Z,4.20
2018-11-03T03:07:40.278Z,3.53
2018-11-03T03:10:10.990Z,5.27
2018-11-03T03:12:40.218Z,6.77
2018-11-03T03:15:10.902Z,3.63
2018-11-03T03:17:40.153Z,3.93
2018-11-03T03:20:10.877Z,3.23
2018-11-03T03:22:40.366Z,4.60
2018-11-03T03:25:11.539Z,3.60
2018-11-03T03:27:40.672Z,4.20
2018-11-03T03:30:09.957Z,3.47
2018-11-03T03:32:38.924Z,5.03
2018-11-03T03:35:07.883Z,4.37
2018-11-03T03:37:36.847Z,4.50
2018-11-03T03:40:06.674Z,5.60
2018-11-03T03:42:35.504Z,4.80
2018-11-03T03:45:04.656Z,4.63
2018-11-03T03:47:34.013Z,4.73
2018-11-03T03:50:05.815Z,4.40
2018-11-03T03:52:34.755Z,4.70
2018-11-03T03:55:03.836Z,4.50
2018-11-03T03:57:32.794Z,5.17
2018-11-03T04:00:01.869Z,4.37
2018-11-03T04:02:30.931Z,5.00
2018-11-03T04:05:00.146Z,5.77
2018-11-03T04:07:29.393Z,5.13
2018-11-03T04:09:58.573Z,4.53
2018-11-03T04:12:27.643Z,4.47
2018-11-03T04:14:56.617Z,5.00
2018-11-03T04:17:25.768Z,4.47
2018-11-03T04:19:54.861Z,5.00
2018-11-03T04:22:23.777Z,5.27
2018-11-03T04:24:52.937Z,5.17
2018-11-03T04:27:22.599Z,5.40
2018-11-03T04:29:51.748Z,4.77
2018-11-03T04:32:20.960Z,5.47
2018-11-03T04:34:49.968Z,6.47
2018-11-03T04:37:19.249Z,4.00
2018-11-03T04:39:48.440Z,3.97
2018-11-03T04:42:17.591Z,5.17
2018-11-03T04:44:46.804Z,4.23
2018-11-03T04:47:15.951Z,5.23
2018-11-03T04:49:45.249Z,4.37
2018-11-03T04:52:14.357Z,6.37
2018-11-03T04:54:43.567Z,5.37
2018-11-03T04:57:12.602Z,4.93
2018-11-03T04:59:41.827Z,4.10
2018-11-03T05:02:14.986Z,4.87
2018-11-03T05:04:44.399Z,7.00
2018-11-03T05:07:13.754Z,4.17
2018-11-03T05:09:42.866Z,4.03
2018-11-03T05:12:12.235Z,4.77
2018-11-03T05:14:41.526Z,5.30
2018-11-03T05:17:11.899Z,6.20
2018-11-03T05:19:40.921Z,4.50
2018-11-03T05:22:10.114Z,4.93
2018-11-03T05:24:39.291Z,9.00
2018-11-03T05:27:08.497Z,7.23
2018-11-03T05:29:37.723Z,5.27
2018-11-03T05:32:07.411Z,5.20
2018-11-03T05:34:36.671Z,7.73
2018-11-03T05:37:06.115Z,6.00
2018-11-03T05:39:35.521Z,5.20
2018-11-03T05:42:04.675Z,4.40
2018-11-03T05:44:33.873Z,5.97
2018-11-03T05:47:02.898Z,5.33
2018-11-03T05:49:31.916Z,4.70
2018-11-03T05:52:01.473Z,3.73
2018-11-03T05:54:31.141Z,5.33
2018-11-03T05:57:00.273Z,5.50
2018-11-03T05:59:29.267Z,4.97
2018-11-03T06:01:58.483Z,9.00
2018-11-03T06:04:27.609Z,5.23
2018-11-03T06:06:56.827Z,6.20
2018-11-03T06:09:26.947Z,4.57
2018-11-03T06:11:56.174Z,4.83
2018-11-03T06:14:25.324Z,5.10
2018-11-03T06:16:54.359Z,5.00
2018-11-03T06:19:23.660Z,6.50
2018-11-03T06:22:05.020Z,4.20
2018-11-03T06:24:33.932Z,6.40
2018-11-03T06:27:03.088Z,10.07
2018-11-03T06:29:32.248Z,4.90
2018-11-03T06:32:01.537Z,5.87
2018-11-03T06:34:30.646Z,11.00
2018-11-03T06:37:03.381Z,5.53
2018-11-03T06:39:32.446Z,4.80
2018-11-03T06:42:01.869Z,6.07
2018-11-03T06:44:33.364Z,5.83
2018-11-03T06:47:02.478Z,7.63
2018-11-03T06:49:31.746Z,6.07
2018-11-03T06:52:02.146Z,5.70
2018-11-03T06:54:32.249Z,5.73
2018-11-03T06:57:03.792Z,5.67
2018-11-03T06:59:35.062Z,5.90
2018-11-03T07:02:05.583Z,7.60
2018-11-03T07:04:45.257Z,6.00
2018-11-03T07:07:14.431Z,5.43
2018-11-03T07:09:44.704Z,7.20
2018-11-03T07:12:14.005Z,6.33
2018-11-03T07:14:45.040Z,7.03
2018-11-03T07:17:22.198Z,12.60
2018-11-03T07:19:51.502Z,8.30
2018-11-03T07:22:20.799Z,6.97
2018-11-03T07:24:50.114Z,12.23
2018-11-03T07:27:24.320Z,7.60
2018-11-03T07:29:53.720Z,6.20
2018-11-03T07:32:22.769Z,7.60
2018-11-03T07:34:55.953Z,9.37
2018-11-03T07:37:25.360Z,9.77
2018-11-03T07:39:54.556Z,8.87
2018-11-03T07:42:23.816Z,9.10
2018-11-03T07:45:09.473Z,9.10
2018-11-03T07:47:40.133Z,12.90
2018-11-03T07:50:12.396Z,11.63
2018-11-03T07:52:42.215Z,10.27
2018-11-03T07:55:15.529Z,7.37
2018-11-03T07:57:55.055Z,9.37
2018-11-03T08:00:24.415Z,11.47
2018-11-03T08:02:58.358Z,7.93
2018-11-03T08:05:31.247Z,9.50
2018-11-03T08:08:04.379Z,8.27
2018-11-03T08:10:33.744Z,8.60
2018-11-03T08:13:02.895Z,10.33
2018-11-03T08:15:32.465Z,13.10
2018-11-03T08:18:01.559Z,14.00
2018-11-03T08:20:30.787Z,13.50
2018-11-03T08:23:01.140Z,8.83
2018-11-03T08:25:30.361Z,10.33
2018-11-03T08:27:59.526Z,10.77
2018-11-03T08:30:28.767Z,12.97
2018-11-03T08:32:58.007Z,19.30
2018-11-03T08:35:27.361Z,13.00
2018-11-03T08:37:56.605Z,21.87
2018-11-03T08:40:25.904Z,11.87
2018-11-03T08:42:55.222Z,9.57
2018-11-03T08:45:24.380Z,12.20
2018-11-03T08:47:54.375Z,14.80
2018-11-03T08:50:29.337Z,13.20
2018-11-03T08:52:58.493Z,11.30
2018-11-03T08:55:27.982Z,11.77
2018-11-03T08:57:57.277Z,12.07
2018-11-03T09:00:26.738Z,13.33
2018-11-03T09:02:55.991Z,14.90
2018-11-03T09:05:26.398Z,14.80
2018-11-03T09:07:55.732Z,18.97
2018-11-03T09:10:24.942Z,14.83
2018-11-03T09:12:53.989Z,16.97
2018-11-03T09:15:23.403Z,15.57
2018-11-03T09:17:52.673Z,16.13
2018-11-03T09:20:21.835Z,17.50
2018-11-03T09:22:51.379Z,21.60
2018-11-03T09:25:20.443Z,19.57
2018-11-03T09:27:49.613Z,19.57
2018-11-03T09:30:19.419Z,18.50
2018-11-03T09:32:51.957Z,18.13
2018-11-03T09:35:21.410Z,18.33
2018-11-03T09:37:53.489Z,15.30
2018-11-03T09:40:23.623Z,20.30
2018-11-03T09:42:53.185Z,16.63
2018-11-03T09:45:23.972Z,14.53
2018-11-03T09:47:54.715Z,23.70
2018-11-03T09:50:30.879Z,17.33
2018-11-03T09:53:01.532Z,14.60
2018-11-03T09:55:33.021Z,17.83
2018-11-03T09:58:03.325Z,17.17
2018-11-03T10:00:35.186Z,14.77
2018-11-03T10:03:07.614Z,12.77
2018-11-03T10:05:39.141Z,15.20
2018-11-03T10:08:09.090Z,17.40
2018-11-03T10:10:41.909Z,19.17
2018-11-03T10:13:16.115Z,14.97
2018-11-03T10:15:45.632Z,16.13
2018-11-03T10:18:18.715Z,14.27
2018-11-03T10:20:51.944Z,13.50
2018-11-03T10:23:23.601Z,18.37
2018-11-03T10:25:58.575Z,13.70
2018-11-03T10:28:30.702Z,21.63
2018-11-03T10:31:01.592Z,15.47
2018-11-03T10:33:33.793Z,21.37
2018-11-03T10:36:03.839Z,16.70
2018-11-03T10:38:34.039Z,15.43
2018-11-03T10:41:10.361Z,19.27
2018-11-03T10:43:43.333Z,16.47
2018-11-03T10:46:17.563Z,13.27
2018-11-03T10:48:53.118Z,16.20
2018-11-03T10:51:28.607Z,14.73
2018-11-03T10:54:03.291Z,18.13
2018-11-03T10:56:38.187Z,12.20
2018-11-03T10:59:08.987Z,14.33
2018-11-03T11:01:45.050Z,12.70
2018-11-03T11:04:22.739Z,11.97
2018-11-03T11:06:59.191Z,13.43
2018-11-03T11:09:34.556Z,12.67
2018-11-03T11:12:13.373Z,10.33
2018-11-03T11:14:44.535Z,11.10
2018-11-03T11:17:13.670Z,12.17
2018-11-03T11:19:42.845Z,12.43
2018-11-03T11:22:12.394Z,11.40
2018-11-03T11:24:41.722Z,8.67
2018-11-03T11:27:14.491Z,9.53
2018-11-03T11:29:44.685Z,8.17
2018-11-03T11:32:20.037Z,10.30
2018-11-03T11:34:49.599Z,11.80
2018-11-03T11:37:19.707Z,12.00
2018-11-03T11:39:51.264Z,12.27
2018-11-03T11:42:24.084Z,9.67
2018-11-03T11:44:54.024Z,8.20
2018-11-03T11:47:31.082Z,10.43
2018-11-03T11:50:00.821Z,11.53
2018-11-03T11:52:30.401Z,10.17
2018-11-03T11:55:01.933Z,8.20
2018-11-03T11:57:31.457Z,7.30
2018-11-03T12:00:03.650Z,10.70
2018-11-03T12:02:35.695Z,7.03
2018-11-03T12:05:04.987Z,6.40
2018-11-03T12:07:34.349Z,4.80
2018-11-03T12:10:03.551Z,6.10
2018-11-03T12:12:33.128Z,6.07
2018-11-03T12:15:05.881Z,6.87
2018-11-03T12:17:36.069Z,6.57
2018-11-03T12:20:06.547Z,5.17
2018-11-03T12:22:35.611Z,5.67
2018-11-03T12:25:08.066Z,4.03
2018-11-03T12:27:40.061Z,4.70
2018-11-03T12:30:11.821Z,3.63
2018-11-03T12:32:41.656Z,7.13
2018-11-03T12:35:11.294Z,6.87
2018-11-03T12:37:44.250Z,6.43
2018-11-03T12:40:14.843Z,4.87
2018-11-03T12:42:43.868Z,5.10
2018-11-03T12:45:15.125Z,4.17
2018-11-03T12:47:44.514Z,3.63
2018-11-03T12:50:15.265Z,5.27
2018-11-03T12:52:44.532Z,3.30
2018-11-03T12:55:13.338Z,3.03
2018-11-03T12:57:42.730Z,3.73
2018-11-03T13:00:13.214Z,6.27
2018-11-03T13:02:43.419Z,5.57
2018-11-03T13:05:12.864Z,2.50
2018-11-03T13:07:42.956Z,3.60
2018-11-03T13:10:15.216Z,6.33
2018-11-03T13:12:44.574Z,2.80
2018-11-03T13:15:14.158Z,2.33
2018-11-03T13:17:55.021Z,1.97
2018-11-03T13:20:23.930Z,2.30
2018-11-03T13:22:54.226Z,3.03
2018-11-03T13:25:22.843Z,5.03
2018-11-03T13:27:57.795Z,1.60
2018-11-03T13:30:27.464Z,2.40
2018-11-03T13:32:56.517Z,2.03
2018-11-03T13:35:28.258Z,2.17
2018-11-03T13:37:59.331Z,1.90
2018-11-03T13:40:29.359Z,2.97
2018-11-03T13:42:58.513Z,2.00
2018-11-03T13:45:27.567Z,2.23
2018-11-03T13:48:02.104Z,1.47
2018-11-03T13:50:33.444Z,1.77
2018-11-03T13:53:05.378Z,2.93
2018-11-03T13:55:44.343Z,3.47
2018-11-03T13:58:16.017Z,1.80
2018-11-03T14:00:51.043Z,3.00
2018-11-03T14:03:22.356Z,2.00
2018-11-03T14:05:54.501Z,2.13
2018-11-03T14:08:25.609Z,2.57
2018-11-03T14:11:00.146Z,4.30
2018-11-03T14:13:32.387Z,1.83
2018-11-03T14:16:03.976Z,1.80
2018-11-03T14:18:33.591Z,1.70
2018-11-03T14:21:08.624Z,2.90
2018-11-03T14:23:47.809Z,2.20
2018-11-03T14:26:18.542Z,3.87
2018-11-03T14:28:50.370Z,2.47
2018-11-03T14:31:26.624Z,2.07
2018-11-03T14:33:57.795Z,2.13
2018-11-03T14:36:31.543Z,1.90
2018-11-03T14:39:06.321Z,2.20
2018-11-03T14:41:37.730Z,1.80
2018-11-03T14:44:13.970Z,2.53
2018-11-03T14:46:44.665Z,2.10
2018-11-03T14:49:20.549Z,2.57
2018-11-03T14:51:53.789Z,1.80
2018-11-03T14:54:25.509Z,2.60
2018-11-03T14:56:57.705Z,2.03
2018-11-03T14:59:40.901Z,3.53
2018-11-03T15:02:11.772Z,1.93
2018-11-03T15:04:47.667Z,2.40
2018-11-03T15:07:24.870Z,3.60
2018-11-03T15:09:55.522Z,2.67
2018-11-03T15:12:29.847Z,2.10
2018-11-03T15:15:07.318Z,2.40
2018-11-03T15:17:42.482Z,2.57
2018-11-03T15:20:14.157Z,2.20
2018-11-03T15:22:45.448Z,2.80
2018-11-03T15:25:24.089Z,3.00
2018-11-03T15:27:53.433Z,2.30
2018-11-03T15:30:26.835Z,2.63
2018-11-03T15:32:55.780Z,2.73
2018-11-03T15:35:24.581Z,2.77
2018-11-03T15:37:53.405Z,2.10
2018-11-03T15:40:22.654Z,3.00
2018-11-03T15:42:51.772Z,2.67
2018-11-03T15:45:22.028Z,2.57
2018-11-03T15:47:52.931Z,3.50
2018-11-03T15:50:21.973Z,2.80
2018-11-03T15:52:51.247Z,2.30
2018-11-03T15:55:23.246Z,2.57
2018-11-03T15:57:52.544Z,2.67
2018-11-03T16:00:23.819Z,2.43
2018-11-03T16:02:53.290Z,2.23
2018-11-03T16:05:22.528Z,2.37
2018-11-03T16:07:51.535Z,2.87
2018-11-03T16:10:20.860Z,3.77
2018-11-03T16:12:53.602Z,2.57
2018-11-03T16:15:29.349Z,5.00
2018-11-03T16:18:01.442Z,4.80
2018-11-03T16:20:37.784Z,3.63
2018-11-03T16:23:06.512Z,2.40
2018-11-03T16:25:35.577Z,2.73
2018-11-03T16:28:04.670Z,5.43
2018-11-03T16:30:35.918Z,3.47
2018-11-03T16:33:05.263Z,3.37
2018-11-03T16:35:34.775Z,3.40
2018-11-03T16:38:03.906Z,3.00
2018-11-03T16:40:33.050Z,5.13
2018-11-03T16:43:02.497Z,3.67
2018-11-03T16:45:36.937Z,5.23
2018-11-03T16:48:10.735Z,5.30
2018-11-03T16:50:39.992Z,3.90
2018-11-03T16:53:13.773Z,3.83
2018-11-03T16:55:42.557Z,3.40
2018-11-03T16:58:12.479Z,3.67
2018-11-03T17:00:41.356Z,6.03
2018-11-03T17:03:11.618Z,6.13
2018-11-03T17:05:40.763Z,4.03
2018-11-03T17:08:10.436Z,3.80
2018-11-03T17:10:39.784Z,4.23
2018-11-03T17:13:08.986Z,4.10
2018-11-03T17:15:38.433Z,4.30
2018-11-03T17:18:09.400Z,4.73
2018-11-03T17:20:38.565Z,4.57
2018-11-03T17:23:07.815Z,4.57
2018-11-03T17:25:36.647Z,3.90
2018-11-03T17:28:05.805Z,4.77
2018-11-03T17:30:34.706Z,4.03
2018-11-03T17:33:04.914Z,3.93
2018-11-03T17:35:33.916Z,3.73
2018-11-03T17:38:03.767Z,4.30
2018-11-03T17:40:32.876Z,4.67
2018-11-03T17:43:01.892Z,4.50
2018-11-03T17:45:33.563Z,3.27
2018-11-03T17:48:02.744Z,3.63
2018-11-03T17:50:32.003Z,4.07
2018-11-03T17:53:02.298Z,3.53
2018-11-03T17:55:32.827Z,3.27
2018-11-03T17:58:04.196Z,3.60
2018-11-03T18:00:34.617Z,4.27
2018-11-03T18:03:09.158Z,4.97
2018-11-03T18:05:38.361Z,4.00
2018-11-03T18:08:08.254Z,4.30
2018-11-03T18:10:39.933Z,6.93
2018-11-03T18:13:11.022Z,5.60
2018-11-03T18:15:40.277Z,5.73
2018-11-03T18:18:10.130Z,10.13
2018-11-03T18:20:39.247Z,9.87
2018-11-03T18:23:08.530Z,12.00
2018-11-03T18:25:37.487Z,16.10
2018-11-03T18:28:09.409Z,14.40
2018-11-03T18:30:39.234Z,15.80
2018-11-03T18:33:09.695Z,12.83
2018-11-03T18:35:42.807Z,13.20
2018-11-03T18:38:12.226Z,17.20
2018-11-03T18:40:41.154Z,16.03
2018-11-03T18:43:10.113Z,12.07
2018-11-03T18:45:39.426Z,10.97
2018-11-03T18:48:08.721Z,13.50
2018-11-03T18:50:38.388Z,14.27
2018-11-03T18:53:08.246Z,11.10
2018-11-03T18:55:37.215Z,11.40
2018-11-03T18:58:06.592Z,9.27
2018-11-03T19:00:35.696Z,10.17
2018-11-03T19:03:04.950Z,10.00
2018-11-03T19:05:34.381Z,9.70
2018-11-03T19:08:03.994Z,10.63
2018-11-03T19:10:33.730Z,9.47
2018-11-03T19:13:03.218Z,8.70
2018-11-03T19:15:32.579Z,8.87
2018-11-03T19:18:06.494Z,10.33
2018-11-03T19:20:37.010Z,8.60
2018-11-03T19:23:10.855Z,6.97
2018-11-03T19:25:39.968Z,7.13
2018-11-03T19:28:09.251Z,7.27
2018-11-03T19:30:38.668Z,7.00
2018-11-03T19:33:08.110Z,8.90
2018-11-03T19:35:37.591Z,6.40
2018-11-03T19:38:07.028Z,6.43
2018-11-03T19:40:36.672Z,5.13
2018-11-03T19:43:07.581Z,6.17
2018-11-03T19:45:38.798Z,4.90
2018-11-03T19:48:16.497Z,6.00
2018-11-03T19:50:50.681Z,4.90
2018-11-03T19:53:23.146Z,5.23
2018-11-03T19:55:59.552Z,5.70
2018-11-03T19:58:31.038Z,5.70
2018-11-03T20:01:00.531Z,6.53
2018-11-03T20:03:30.075Z,10.60
2018-11-03T20:06:00.570Z,6.10
2018-11-03T20:08:35.865Z,5.97
2018-11-03T20:11:05.142Z,6.50
2018-11-03T20:13:34.771Z,7.63
2018-11-03T20:16:04.322Z,7.17
2018-11-03T20:18:33.729Z,6.10
2018-11-03T20:21:03.000Z,8.17
2018-11-03T20:24:16.311Z,5.07
2018-11-03T20:26:47.829Z,8.17
2018-11-03T20:29:19.288Z,9.70
2018-11-03T20:31:53.843Z,6.13
2018-11-03T20:34:25.164Z,9.40
2018-11-03T20:36:55.243Z,10.07
2018-11-03T20:39:24.671Z,9.33
2018-11-03T20:42:00.895Z,8.90
2018-11-03T20:44:31.465Z,6.97
2018-11-03T20:47:01.819Z,7.73
2018-11-03T20:49:35.904Z,9.77
2018-11-03T20:52:07.422Z,7.80
2018-11-03T20:54:36.780Z,9.20
2018-11-03T20:57:06.297Z,8.37
2018-11-03T20:59:35.466Z,9.23
2018-11-03T21:02:08.845Z,10.10
2018-11-03T21:04:38.456Z,11.37
2018-11-03T21:07:07.983Z,7.37
2018-11-03T21:09:38.068Z,7.83
2018-11-03T21:12:07.676Z,7.53
2018-11-03T21:14:44.988Z,7.30
2018-11-03T21:17:18.533Z,5.83
2018-11-03T21:19:47.799Z,5.47
2018-11-03T21:22:17.123Z,12.37
2018-11-03T21:24:46.546Z,6.77
2018-11-03T21:27:16.104Z,8.07
2018-11-03T21:29:48.937Z,6.57
2018-11-03T21:32:18.586Z,5.57
2018-11-03T21:34:47.853Z,8.47
2018-11-03T21:37:17.422Z,7.07
2018-11-03T21:39:46.841Z,6.00
2018-11-03T21:42:16.328Z,5.63
2018-11-03T21:44:45.513Z,6.03
2018-11-03T21:47:15.100Z,9.37
2018-11-03T21:49:48.093Z,5.67
2018-11-03T21:52:17.644Z,5.97
2018-11-03T21:54:50.492Z,8.17
2018-11-03T21:57:19.950Z,6.57
2018-11-03T21:59:49.403Z,5.50
2018-11-03T22:02:18.696Z,5.77
2018-11-03T22:04:48.174Z,6.13
2018-11-03T22:07:20.877Z,7.67
2018-11-03T22:09:50.254Z,6.07
2018-11-03T22:12:20.912Z,6.17
2018-11-03T22:14:53.463Z,7.00
2018-11-03T22:17:22.695Z,6.83
2018-11-03T22:19:56.561Z,6.80
2018-11-03T22:22:25.688Z,10.83
2018-11-03T22:24:58.505Z,6.10
2018-11-03T22:27:28.209Z,5.50
2018-11-03T22:29:57.528Z,4.93
2018-11-03T22:32:26.773Z,9.80
2018-11-03T22:34:56.092Z,13.93
2018-11-03T22:37:26.232Z,7.53
2018-11-03T22:39:55.666Z,11.33
2018-11-03T22:42:25.232Z,13.23
2018-11-03T22:44:57.991Z,7.07
2018-11-03T22:47:27.445Z,8.33
2018-11-03T22:49:58.918Z,8.80
2018-11-03T22:52:28.147Z,5.40
2018-11-03T22:54:57.314Z,5.67
2018-11-03T22:57:26.583Z,5.80
2018-11-03T22:59:56.085Z,7.20
2018-11-03T23:02:25.338Z,6.03
2018-11-03T23:04:54.898Z,9.43
2018-11-03T23:07:24.215Z,5.13
2018-11-03T23:09:53.621Z,5.13
2018-11-03T23:12:23.185Z,5.77
2018-11-03T23:14:58.885Z,5.33
2018-11-03T23:17:28.107Z,7.13
2018-11-03T23:19:57.859Z,5.23
2018-11-03T23:22:27.091Z,5.93
2018-11-03T23:24:56.430Z,6.57
2018-11-03T23:27:25.879Z,4.73
2018-11-03T23:29:55.361Z,4.93
2018-11-03T23:32:24.372Z,6.13
2018-11-03T23:34:53.732Z,5.43
2018-11-03T23:37:22.993Z,6.90
2018-11-03T23:39:52.319Z,6.50
2018-11-03T23:42:21.487Z,6.17
2018-11-03T23:44:50.791Z,4.73
2018-11-03T23:47:19.994Z,5.50
2018-11-03T23:49:49.237Z,7.83
2018-11-03T23:52:22.763Z,6.30
2018-11-03T23:54:51.992Z,4.63
2018-11-03T23:57:21.089Z,5.40
2018-11-03T23:59:53.458Z,10.43
